Terminal Aerodrome Forecast
Issued by NWS

Home | Current Version | Previous Version | Text Only | Print | Product List | Glossary On
Versions: 1 2 3 4 5 6 7 8 9 10 11 12 13 14 15 16 17
000
FTUS43 KJKL 300520
TAFSME
TAF
KSME 300520Z 3006/3106 VRB03KT P6SM SCT100 BKN250
     FM300700 00000KT 5SM BR FEW050
      TEMPO 3010/3012 1SM BR
     FM301430 21007KT P6SM BKN040
     FM301800 24007KT 5SM -SHRA VCTS BKN050CB OVC120
     FM310000 VRB05KT P6SM VCTS BKN050CB BKN120=

USA.gov is the U.S. government's official web portal to all federal, state and local government web resources and services.